Station Historical Data
Daily Summary for August 6, 2017 Units:  Metric    English   Both
« Previous Day
Next Day »
Daily Weekly Monthly Yearly Custom
  High: Low: Average:
Temperature: 24.9 °C 10.7 °C 18.7 °C
Dew Point: 16.6 °C 9.1 °C 13.1 °C
Humidity: 91% 45% 72%
Wind Speed: 20.9km/h 0km/h 4.8km/h
Wind Gust: 27.4km/h - -
Wind- - WSW
Pressure: 1018.5 hPa 1016.5 hPa -
Precipitation: 0 mm    
Historical Graphs
 
 
Tabular Data for August 6, 2017
Time Temperature Dew Point Pressure Wind Wind Speed Wind Gust Humidity Rainfall Rate (Hourly)
00:00 13.4 °C 10 °C 1016.5 hPa Calm     80% 0 mm
00:05 13.3 °C 9.9 °C 1016.5 hPa Calm     80% 0 mm
00:10 13.3 °C 9.9 °C 1016.5 hPa Calm     80% 0 mm
00:15 13.3 °C 10.2 °C 1016.8 hPa Calm     81% 0 mm
00:20 13.2 °C 10.1 °C 1016.8 hPa Calm     81% 0 mm
00:25 13.2 °C 10 °C 1016.5 hPa Calm     81% 0 mm
00:30 13 °C 9.8 °C 1016.8 hPa Calm     81% 0 mm
00:35 13 °C 10 °C 1016.8 hPa Calm     82% 0 mm
00:40 12.9 °C 9.9 °C 1016.8 hPa Calm     82% 0 mm
00:45 12.9 °C 9.9 °C 1016.8 hPa Calm     82% 0 mm
00:50 12.8 °C 9.8 °C 1016.8 hPa Calm     82% 0 mm
00:55 12.7 °C 9.8 °C 1016.8 hPa Calm     83% 0 mm
01:00 12.6 °C 9.7 °C 1016.5 hPa Calm     83% 0 mm
01:10 12.6 °C 9.7 °C 1016.5 hPa Calm     83% 0 mm
01:15 12.6 °C 9.8 °C 1016.5 hPa Calm     83% 0 mm
01:20 12.7 °C 10.1 °C 1016.5 hPa Calm     84% 0 mm
01:25 12.6 °C 9.9 °C 1016.5 hPa Calm     84% 0 mm
01:30 12.5 °C 10.1 °C 1016.5 hPa Calm     85% 0 mm
01:35 12.3 °C 9.9 °C 1016.5 hPa Calm     85% 0 mm
01:40 12.3 °C 9.8 °C 1016.8 hPa Calm     85% 0 mm
01:45 12.2 °C 9.7 °C 1016.8 hPa Calm     85% 0 mm
01:50 12.1 °C 9.7 °C 1016.5 hPa Calm     85% 0 mm
01:55 12.1 °C 9.7 °C 1016.8 hPa Calm     85% 0 mm
02:00 12.1 °C 9.6 °C 1016.8 hPa Calm     85% 0 mm
02:15 11.9 °C 9.7 °C 1016.8 hPa Calm     86% 0 mm
02:20 11.8 °C 9.6 °C 1016.8 hPa Calm     86% 0 mm
02:25 11.8 °C 9.7 °C 1016.8 hPa Calm     87% 0 mm
02:30 11.8 °C 9.7 °C 1016.5 hPa Calm     87% 0 mm
02:35 11.8 °C 9.7 °C 1016.5 hPa Calm     87% 0 mm
02:40 11.8 °C 9.7 °C 1016.5 hPa Calm     87% 0 mm
02:45 11.8 °C 9.9 °C 1016.8 hPa Calm     88% 0 mm
02:50 11.9 °C 9.8 °C 1016.8 hPa Calm     87% 0 mm
02:55 11.8 °C 9.7 °C 1016.8 hPa Calm     87% 0 mm
03:00 11.8 °C 9.9 °C 1016.8 hPa Calm     88% 0 mm
03:05 11.8 °C 9.8 °C 1016.5 hPa Calm     88% 0 mm
03:10 11.7 °C 9.6 °C 1016.8 hPa Calm     87% 0 mm
03:15 11.7 °C 9.7 °C 1016.8 hPa Calm     88% 0 mm
03:20 11.6 °C 9.7 °C 1016.8 hPa Calm     88% 0 mm
03:25 11.5 °C 9.6 °C 1016.8 hPa Calm     88% 0 mm
03:30 11.4 °C 9.5 °C 1016.8 hPa Calm     88% 0 mm
03:35 11.4 °C 9.5 °C 1016.8 hPa Calm     88% 0 mm
03:40 11.4 °C 9.5 °C 1016.8 hPa Calm     88% 0 mm
03:45 11.6 °C 9.6 °C 1016.8 hPa Calm     88% 0 mm
03:50 11.6 °C 9.6 °C 1016.8 hPa Calm     88% 0 mm
03:55 11.7 °C 9.8 °C 1016.8 hPa Calm     88% 0 mm
04:00 11.7 °C 9.8 °C 1016.8 hPa Calm     88% 0 mm
04:05 11.8 °C 9.8 °C 1016.8 hPa Calm     88% 0 mm
04:10 11.8 °C 9.9 °C 1016.8 hPa Calm     88% 0 mm
04:15 11.7 °C 9.8 °C 1016.8 hPa Calm     88% 0 mm
04:20 11.7 °C 9.7 °C 1016.8 hPa Calm     88% 0 mm
04:25 11.7 °C 9.7 °C 1016.8 hPa Calm     88% 0 mm
04:29 11.7 °C 9.8 °C 1016.8 hPa Calm     88% 0 mm
04:35 11.7 °C 9.8 °C 1016.8 hPa Calm     88% 0 mm
04:40 11.7 °C 9.7 °C 1016.8 hPa Calm     88% 0 mm
04:45 11.7 °C 9.8 °C 1016.8 hPa Calm     88% 0 mm
04:50 11.6 °C 9.7 °C 1017.2 hPa Calm     88% 0 mm
04:55 11.4 °C 9.5 °C 1016.8 hPa Calm     88% 0 mm
05:00 11.3 °C 9.4 °C 1016.8 hPa Calm     88% 0 mm
05:05 11.2 °C 9.3 °C 1017.2 hPa Calm     88% 0 mm
05:09 11.2 °C 9.5 °C 1017.2 hPa Calm     89% 0 mm
05:15 11.2 °C 9.4 °C 1017.2 hPa Calm     89% 0 mm
05:20 11.1 °C 9.3 °C 1017.2 hPa Calm     89% 0 mm
05:25 11.1 °C 9.4 °C 1017.2 hPa Calm     89% 0 mm
05:30 11.2 °C 9.4 °C 1017.2 hPa Calm     89% 0 mm
05:35 11.2 °C 9.4 °C 1017.5 hPa Calm     89% 0 mm
05:40 11.1 °C 9.5 °C 1017.5 hPa Calm     90% 0 mm
05:44 10.9 °C 9.2 °C 1017.5 hPa Calm     89% 0 mm
05:55 10.7 °C 9.2 °C 1017.8 hPa Calm     90% 0 mm
06:00 10.7 °C 9.1 °C 1017.8 hPa Calm     90% 0 mm
06:05 10.7 °C 9.2 °C 1017.8 hPa Calm     90% 0 mm
06:10 10.7 °C 9.1 °C 1017.5 hPa Calm     90% 0 mm
06:14 10.8 °C 9.3 °C 1017.5 hPa Calm     90% 0 mm
06:20 10.9 °C 9.5 °C 1017.5 hPa Calm     91% 0 mm
06:25 10.9 °C 9.5 °C 1017.5 hPa Calm     91% 0 mm
06:30 10.8 °C 9.4 °C 1017.8 hPa Calm     91% 0 mm
06:35 10.9 °C 9.6 °C 1017.8 hPa Calm     91% 0 mm
06:40 11.1 °C 9.7 °C 1017.8 hPa Calm     91% 0 mm
06:45 11.2 °C 9.8 °C 1017.8 hPa Calm     91% 0 mm
06:50 11.2 °C 9.8 °C 1017.8 hPa Calm     91% 0 mm
06:55 11.3 °C 9.9 °C 1017.8 hPa Calm     91% 0 mm
06:59 11.5 °C 10.1 °C 1017.8 hPa Calm     91% 0 mm
07:04 11.7 °C 10.3 °C 1017.8 hPa Calm     91% 0 mm
07:10 11.9 °C 10.3 °C 1017.8 hPa Calm     90% 0 mm
07:15 12.2 °C 10.6 °C 1018.2 hPa Calm     90% 0 mm
07:20 12.6 °C 10.9 °C 1018.2 hPa Calm     90% 0 mm
07:24 12.9 °C 11.1 °C 1018.2 hPa Calm     89% 0 mm
07:35 13.6 °C 11.6 °C 1018.2 hPa Calm     88% 0 mm
07:40 13.8 °C 11.7 °C 1018.2 hPa Calm     87% 0 mm
07:45 14.2 °C 11.8 °C 1018.2 hPa Calm     86% 0 mm
07:50 14.4 °C 11.9 °C 1018.2 hPa SSE 3.2 km/h 4.8 km/h 85% 0 mm
07:54 14.8 °C 12.1 °C 1018.2 hPa South 1.6 km/h 4.8 km/h 84% 0 mm
08:00 15.1 °C 12.2 °C 1018.2 hPa South 1.6 km/h 6.4 km/h 83% 0 mm
08:05 15.2 °C 12.2 °C 1018.2 hPa SSW 3.2 km/h 6.4 km/h 82% 0 mm
08:10 15.5 °C 12.4 °C 1018.2 hPa SSW 1.6 km/h 6.4 km/h 82% 0 mm
08:15 15.7 °C 12.7 °C 1018.2 hPa SSW 1.6 km/h 4.8 km/h 82% 0 mm
08:20 16 °C 12.7 °C 1018.2 hPa SW 1.6 km/h 6.4 km/h 81% 0 mm
08:24 16.3 °C 12.8 °C 1018.2 hPa SSW 4.8 km/h 6.4 km/h 80% 0 mm
08:29 16.5 °C 12.8 °C 1018.5 hPa WSW 3.2 km/h 6.4 km/h 79% 0 mm
08:35 16.7 °C 12.9 °C 1018.5 hPa SW 3.2 km/h 9.7 km/h 78% 0 mm
08:40 16.8 °C 13 °C 1018.5 hPa South 4.8 km/h 8 km/h 78% 0 mm
08:45 17.1 °C 13.1 °C 1018.5 hPa Calm   8 km/h 77% 0 mm
08:50 17.3 °C 13 °C 1018.5 hPa SSW 3.2 km/h 8 km/h 76% 0 mm
08:55 17.6 °C 13.3 °C 1018.5 hPa SSW 3.2 km/h 8 km/h 76% 0 mm
08:59 17.9 °C 13.2 °C 1018.5 hPa SSW 3.2 km/h 9.7 km/h 74% 0 mm
09:05 18.4 °C 13.9 °C 1018.2 hPa SW 3.2 km/h 9.7 km/h 75% 0 mm
09:10 18.7 °C 13.5 °C 1018.5 hPa SW 4.8 km/h 8 km/h 72% 0 mm
09:15 19.3 °C 14.1 °C 1018.2 hPa SSW 3.2 km/h 8 km/h 72% 0 mm
09:20 19.4 °C 14.1 °C 1018.5 hPa WSW 3.2 km/h 8 km/h 71% 0 mm
09:25 19.5 °C 14.1 °C 1018.5 hPa SSW 4.8 km/h 9.7 km/h 71% 0 mm
09:29 19.5 °C 13.7 °C 1018.2 hPa SSW 4.8 km/h 11.3 km/h 69% 0 mm
09:34 19.8 °C 14.2 °C 1018.2 hPa SW 4.8 km/h 8 km/h 70% 0 mm
09:40 20.1 °C 14.2 °C 1018.2 hPa SW 4.8 km/h 9.7 km/h 69% 0 mm
09:44 20.6 °C 14.7 °C 1018.2 hPa SSW 1.6 km/h 9.7 km/h 69% 0 mm
09:49 20.9 °C 15.1 °C 1018.2 hPa SW 3.2 km/h 11.3 km/h 69% 0 mm
09:54 20.9 °C 15.1 °C 1018.2 hPa WSW 9.7 km/h 9.7 km/h 69% 0 mm
10:00 21.2 °C 14.8 °C 1018.2 hPa WSW 4.8 km/h 14.5 km/h 67% 0 mm
10:04 21.3 °C 15.2 °C 1017.8 hPa SW 6.4 km/h 14.5 km/h 68% 0 mm
10:09 21.6 °C 15.4 °C 1017.8 hPa SW 6.4 km/h 12.9 km/h 68% 0 mm
10:14 21.6 °C 14.7 °C 1017.8 hPa SW 6.4 km/h 12.9 km/h 65% 0 mm
10:20 21.8 °C 15.4 °C 1017.8 hPa WSW 6.4 km/h 12.9 km/h 67% 0 mm
10:25 22.1 °C 15 °C 1017.8 hPa SW 11.3 km/h 14.5 km/h 64% 0 mm
10:30 22.1 °C 15.2 °C 1017.8 hPa SW 16.1 km/h 22.5 km/h 65% 0 mm
10:35 22 °C 14.9 °C 1017.8 hPa SW 11.3 km/h 17.7 km/h 64% 0 mm
10:39 22.1 °C 14.7 °C 1017.8 hPa West 6.4 km/h 12.9 km/h 63% 0 mm
10:44 21.8 °C 14.5 °C 1017.8 hPa WSW 4.8 km/h 16.1 km/h 63% 0 mm
10:49 22.6 °C 14.9 °C 1018.2 hPa South 4.8 km/h 14.5 km/h 62% 0 mm
10:54 22.4 °C 14.6 °C 1017.8 hPa SW 4.8 km/h 17.7 km/h 61% 0 mm
10:59 22.2 °C 14.8 °C 1017.8 hPa WSW 3.2 km/h 14.5 km/h 63% 0 mm
11:04 22.7 °C 15 °C 1018.2 hPa WSW 8 km/h 19.3 km/h 62% 0 mm
11:10 22.6 °C 14.9 °C 1018.2 hPa SW 9.7 km/h 19.3 km/h 62% 0 mm
11:15 22.8 °C 15.2 °C 1018.2 hPa SSW 8 km/h 19.3 km/h 62% 0 mm
11:20 23 °C 15.1 °C 1018.2 hPa SW 6.4 km/h 16.1 km/h 61% 0 mm
11:30 23.4 °C 15.2 °C 1018.2 hPa West 9.7 km/h 17.7 km/h 60% 0 mm
11:35 23.2 °C 14.7 °C 1018.2 hPa West 6.4 km/h 14.5 km/h 59% 0 mm
11:39 23.3 °C 15.1 °C 1018.2 hPa WSW 8 km/h 17.7 km/h 60% 0 mm
11:44 23 °C 14 °C 1018.2 hPa SW 14.5 km/h 20.9 km/h 57% 0 mm
11:49 23.3 °C 14.9 °C 1018.2 hPa WSW 6.4 km/h 17.7 km/h 59% 0 mm
11:50 23.3 °C 14.9 °C 1018.2 hPa SW 11.3 km/h 20.9 km/h 59% 0 mm
11:54 23.5 °C 14.2 °C 1018.2 hPa SW 14.5 km/h 19.3 km/h 56% 0 mm
11:59 23.3 °C 13.7 °C 1018.2 hPa West 11.3 km/h 24.1 km/h 55% 0 mm
12:09 22.3 °C 13.1 °C 1018.2 hPa WSW 9.7 km/h 20.9 km/h 56% 0 mm
12:14 23 °C 13.4 °C 1018.2 hPa WSW 9.7 km/h 20.9 km/h 55% 0 mm
12:19 24.1 °C 14.2 °C 1018.2 hPa WSW 8 km/h 20.9 km/h 54% 0 mm
12:24 23.8 °C 13.4 °C 1018.2 hPa WSW 8 km/h 20.9 km/h 52% 0 mm
12:30 23.7 °C 12.9 °C 1018.2 hPa WSW 9.7 km/h 19.3 km/h 51% 0 mm
12:35 24.2 °C 12.8 °C 1018.2 hPa West 8 km/h 14.5 km/h 49% 0 mm
12:39 24.1 °C 12.4 °C 1018.2 hPa WSW 9.7 km/h 20.9 km/h 48% 0 mm
12:44 23.9 °C 12.5 °C 1017.8 hPa WSW 9.7 km/h 22.5 km/h 49% 0 mm
12:50 23.9 °C 12.9 °C 1018.2 hPa SW 8 km/h 22.5 km/h 50% 0 mm
12:54 23.9 °C 12.5 °C 1018.2 hPa SW 12.9 km/h 19.3 km/h 49% 0 mm
12:59 24.4 °C 13.6 °C 1017.8 hPa West 6.4 km/h 17.7 km/h 51% 0 mm
13:04 24.2 °C 11.8 °C 1018.2 hPa WSW 12.9 km/h 25.7 km/h 46% 0 mm
13:09 23.9 °C 12.6 °C 1017.8 hPa SW 12.9 km/h 17.7 km/h 49% 0 mm
13:14 23.9 °C 11.9 °C 1017.8 hPa WSW 9.7 km/h 17.7 km/h 47% 0 mm
13:19 24.1 °C 13.1 °C 1017.8 hPa WSW 9.7 km/h 22.5 km/h 50% 0 mm
13:25 24.2 °C 12.2 °C 1017.8 hPa WSW 9.7 km/h 22.5 km/h 47% 0 mm
13:30 24.1 °C 11.7 °C 1017.8 hPa SW 8 km/h 20.9 km/h 46% 0 mm
13:35 24.3 °C 12.9 °C 1017.8 hPa SW 8 km/h 16.1 km/h 49% 0 mm
13:40 24.7 °C 14.2 °C 1017.8 hPa West 11.3 km/h 16.1 km/h 52% 0 mm
13:44 24.4 °C 12.1 °C 1017.8 hPa WSW 9.7 km/h 24.1 km/h 46% 0 mm
13:49 24.9 °C 13.1 °C 1017.8 hPa WSW 9.7 km/h 24.1 km/h 48% 0 mm
13:54 24.5 °C 13.1 °C 1017.8 hPa WSW 8 km/h 20.9 km/h 49% 0 mm
13:59 24.2 °C 12.8 °C 1017.8 hPa West 11.3 km/h 22.5 km/h 49% 0 mm
14:09 24.2 °C 11.8 °C 1017.8 hPa WNW 8 km/h 20.9 km/h 46% 0 mm
14:14 24.2 °C 12.2 °C 1017.5 hPa WSW 8 km/h 20.9 km/h 47% 0 mm
14:19 23.9 °C 11.2 °C 1017.5 hPa WSW 9.7 km/h 20.9 km/h 45% 0 mm
14:24 23.8 °C 12.2 °C 1017.8 hPa West 8 km/h 12.9 km/h 48% 0 mm
14:30 23.7 °C 12.1 °C 1017.5 hPa WSW 6.4 km/h 16.1 km/h 48% 0 mm
14:34 23.6 °C 11.9 °C 1017.8 hPa WNW 19.3 km/h 19.3 km/h 48% 0 mm
14:39 23.6 °C 12.8 °C 1017.8 hPa SW 11.3 km/h 19.3 km/h 51% 0 mm
14:44 23.4 °C 12.1 °C 1017.5 hPa SW 9.7 km/h 20.9 km/h 49% 0 mm
14:49 23.9 °C 11.9 °C 1017.5 hPa SW 9.7 km/h 20.9 km/h 47% 0 mm
14:54 23.7 °C 12.7 °C 1017.5 hPa WSW 9.7 km/h 25.7 km/h 50% 0 mm
14:59 23.9 °C 12.9 °C 1017.5 hPa WSW 9.7 km/h 25.7 km/h 50% 0 mm
15:05 23.9 °C 13.7 °C 1017.5 hPa WSW 8 km/h 17.7 km/h 53% 0 mm
15:10 24.8 °C 14.3 °C 1017.5 hPa SW 12.9 km/h 16.1 km/h 52% 0 mm
15:15 24.8 °C 14.3 °C 1017.5 hPa SW 20.9 km/h 20.9 km/h 52% 0 mm
15:19 24.8 °C 14 °C 1017.2 hPa WSW 11.3 km/h 20.9 km/h 51% 0 mm
15:24 24.7 °C 13.9 °C 1017.5 hPa WSW 11.3 km/h 25.7 km/h 51% 0 mm
15:29 24.8 °C 14.6 °C 1017.5 hPa WSW 11.3 km/h 20.9 km/h 53% 0 mm
15:34 24.9 °C 14.7 °C 1017.2 hPa WSW 8 km/h 17.7 km/h 53% 0 mm
15:39 24.4 °C 14.2 °C 1017.2 hPa WSW 9.7 km/h 22.5 km/h 53% 0 mm
15:45 23.7 °C 13.8 °C 1017.2 hPa WNW 11.3 km/h 20.9 km/h 54% 0 mm
15:49 24.4 °C 14.2 °C 1017.2 hPa WSW 11.3 km/h 20.9 km/h 53% 0 mm
15:54 24.5 °C 14.6 °C 1017.2 hPa SW 9.7 km/h 19.3 km/h 54% 0 mm
15:59 24.4 °C 14.2 °C 1017.2 hPa SW 11.3 km/h 22.5 km/h 53% 0 mm
16:05 24.3 °C 14.7 °C 1017.2 hPa SW 11.3 km/h 27.4 km/h 55% 0 mm
16:09 24.2 °C 14.9 °C 1017.2 hPa SW 9.7 km/h 19.3 km/h 56% 0 mm
16:15 24.2 °C 15.4 °C 1016.8 hPa SW 17.7 km/h 17.7 km/h 58% 0 mm
16:19 24.4 °C 15.1 °C 1016.8 hPa SW 11.3 km/h 19.3 km/h 56% 0 mm
16:29 24.4 °C 15.8 °C 1016.8 hPa SW 9.7 km/h 19.3 km/h 59% 0 mm
16:34 23.8 °C 15.6 °C 1016.8 hPa WSW 9.7 km/h 19.3 km/h 60% 0 mm
16:39 24 °C 16 °C 1016.8 hPa WSW 8 km/h 19.3 km/h 61% 0 mm
16:44 23.8 °C 15.6 °C 1016.8 hPa SW 8 km/h 17.7 km/h 60% 0 mm
16:49 23.6 °C 15.4 °C 1016.8 hPa WNW 8 km/h 19.3 km/h 60% 0 mm
16:54 23.4 °C 16.2 °C 1016.8 hPa WSW 9.7 km/h 19.3 km/h 64% 0 mm
16:59 23.5 °C 15.8 °C 1016.8 hPa SW 12.9 km/h 17.7 km/h 62% 0 mm
17:04 24.1 °C 16.1 °C 1016.8 hPa SSW 6.4 km/h 14.5 km/h 61% 0 mm
17:09 23.8 °C 15 °C 1016.5 hPa WSW 9.7 km/h 22.5 km/h 58% 0 mm
17:14 23.4 °C 15.2 °C 1016.8 hPa WNW 12.9 km/h 20.9 km/h 60% 0 mm
17:20 23.2 °C 15.2 °C 1016.8 hPa West 9.7 km/h 25.7 km/h 61% 0 mm
17:24 23.3 °C 15.3 °C 1016.8 hPa WSW 11.3 km/h 25.7 km/h 61% 0 mm
17:29 23.7 °C 15.7 °C 1016.8 hPa SW 8 km/h 17.7 km/h 61% 0 mm
17:34 23.8 °C 15.1 °C 1016.8 hPa SW 9.7 km/h 17.7 km/h 58% 0 mm
17:39 23.9 °C 15.7 °C 1016.8 hPa WSW 9.7 km/h 24.1 km/h 60% 0 mm
17:44 23.4 °C 15.4 °C 1016.8 hPa SSW 6.4 km/h 27.4 km/h 61% 0 mm
17:49 23.4 °C 15.7 °C 1016.8 hPa WSW 6.4 km/h 20.9 km/h 62% 0 mm
17:54 23.4 °C 16 °C 1016.8 hPa WSW 9.7 km/h 20.9 km/h 63% 0 mm
17:59 23.3 °C 16.3 °C 1016.8 hPa WSW 11.3 km/h 16.1 km/h 65% 0 mm
18:04 23 °C 16.1 °C 1016.5 hPa West 6.4 km/h 19.3 km/h 65% 0 mm
18:09 22.7 °C 15.8 °C 1016.5 hPa WSW 9.7 km/h 20.9 km/h 65% 0 mm
18:14 22.9 °C 16.2 °C 1016.5 hPa WSW 4.8 km/h 16.1 km/h 66% 0 mm
18:19 22.8 °C 16.4 °C 1016.8 hPa West 9.7 km/h 22.5 km/h 67% 0 mm
18:24 22.7 °C 16.3 °C 1016.8 hPa West 17.7 km/h 17.7 km/h 67% 0 mm
18:29 22.7 °C 16.5 °C 1016.8 hPa WSW 8 km/h 17.7 km/h 68% 0 mm
18:34 22.7 °C 16.5 °C 1016.8 hPa WSW 8 km/h 22.5 km/h 68% 0 mm
18:39 22.6 °C 15.9 °C 1016.8 hPa WSW 9.7 km/h 22.5 km/h 66% 0 mm
18:44 22.5 °C 15.8 °C 1016.8 hPa WSW 11.3 km/h 22.5 km/h 66% 0 mm
18:49 22.5 °C 15.8 °C 1016.8 hPa WSW 12.9 km/h 20.9 km/h 66% 0 mm
18:54 22.4 °C 15.8 °C 1016.8 hPa SW 9.7 km/h 20.9 km/h 66% 0 mm
18:59 22.3 °C 15.9 °C 1016.8 hPa WSW 11.3 km/h 22.5 km/h 67% 0 mm
19:04 22.2 °C 16.3 °C 1016.8 hPa WSW 11.3 km/h 22.5 km/h 69% 0 mm
19:09 22.2 °C 16.2 °C 1016.8 hPa WSW 14.5 km/h 20.9 km/h 69% 0 mm
19:14 22.1 °C 16.6 °C 1016.8 hPa WSW 4.8 km/h 17.7 km/h 71% 0 mm
19:19 22 °C 16.5 °C 1016.8 hPa West 14.5 km/h 20.9 km/h 71% 0 mm
19:24 21.9 °C 16.4 °C 1016.8 hPa WSW 4.8 km/h 19.3 km/h 71% 0 mm
19:29 21.9 °C 16.2 °C 1016.8 hPa SSW 4.8 km/h 20.9 km/h 70% 0 mm
19:34 21.9 °C 16.2 °C 1016.8 hPa WSW 9.7 km/h 20.9 km/h 70% 0 mm
19:44 21.9 °C 16.4 °C 1016.8 hPa WSW 6.4 km/h 12.9 km/h 71% 0 mm
19:49 21.9 °C 16.6 °C 1016.8 hPa WSW 6.4 km/h 12.9 km/h 72% 0 mm
19:54 21.8 °C 16.6 °C 1016.8 hPa West 6.4 km/h 14.5 km/h 72% 0 mm
20:00 21.8 °C 16.5 °C 1016.8 hPa West 6.4 km/h 14.5 km/h 72% 0 mm
20:04 21.8 °C 16.5 °C 1016.8 hPa West 4.8 km/h 9.7 km/h 72% 0 mm
20:09 21.8 °C 16.5 °C 1016.8 hPa West 9.7 km/h 12.9 km/h 72% 0 mm
20:14 21.7 °C 16.2 °C 1017.2 hPa WSW 9.7 km/h 14.5 km/h 71% 0 mm
20:19 21.6 °C 16.1 °C 1016.8 hPa WSW 6.4 km/h 16.1 km/h 71% 0 mm
20:24 21.5 °C 16.2 °C 1016.8 hPa West 4.8 km/h 14.5 km/h 72% 0 mm
20:29 21.4 °C 15.9 °C 1016.8 hPa SW 6.4 km/h 11.3 km/h 71% 0 mm
20:34 21.4 °C 15.9 °C 1016.8 hPa WSW 3.2 km/h 9.7 km/h 71% 0 mm
20:39 21.4 °C 15.9 °C 1016.8 hPa WSW 4.8 km/h 9.7 km/h 71% 0 mm
20:44 21.3 °C 15.8 °C 1016.5 hPa WSW 4.8 km/h 14.5 km/h 71% 0 mm
20:49 21.3 °C 15.8 °C 1016.5 hPa WSW 4.8 km/h 14.5 km/h 71% 0 mm
20:54 21.2 °C 15.7 °C 1016.8 hPa West 4.8 km/h 12.9 km/h 71% 0 mm
20:59 21.1 °C 15.6 °C 1016.5 hPa West 4.8 km/h 12.9 km/h 71% 0 mm
21:04 21 °C 15.6 °C 1016.8 hPa West 4.8 km/h 11.3 km/h 71% 0 mm
21:10 20.9 °C 15.4 °C 1016.8 hPa West 4.8 km/h 11.3 km/h 71% 0 mm
21:14 20.8 °C 15.6 °C 1016.8 hPa West 3.2 km/h 8 km/h 72% 0 mm
21:19 20.7 °C 15.4 °C 1016.8 hPa West 3.2 km/h 8 km/h 72% 0 mm
21:24 20.7 °C 15.4 °C 1016.8 hPa WSW 1.6 km/h 6.4 km/h 72% 0 mm
21:29 20.5 °C 15.5 °C 1016.8 hPa WSW 1.6 km/h 4.8 km/h 73% 0 mm
21:34 20.4 °C 15.6 °C 1016.8 hPa Calm   6.4 km/h 74% 0 mm
21:39 20.3 °C 15.5 °C 1016.8 hPa Calm     74% 0 mm
21:49 20.3 °C 15.7 °C 1016.8 hPa WSW 1.6 km/h 6.4 km/h 75% 0 mm
21:54 20.3 °C 15.7 °C 1017.2 hPa WSW 1.6 km/h 6.4 km/h 75% 0 mm
22:05 20.2 °C 15.6 °C 1017.2 hPa Calm   3.2 km/h 75% 0 mm
22:09 20.1 °C 15.5 °C 1017.2 hPa Calm     75% 0 mm
22:14 20.1 °C 15.5 °C 1017.2 hPa Calm   11.3 km/h 75% 0 mm
22:19 20.2 °C 15.7 °C 1017.2 hPa WSW 4.8 km/h 6.4 km/h 75% 0 mm
22:24 20.4 °C 15.7 °C 1017.2 hPa West 8 km/h 8 km/h 74% 0 mm
22:29 20.6 °C 15.6 °C 1017.2 hPa South 4.8 km/h 11.3 km/h 73% 0 mm
22:34 20.8 °C 15.8 °C 1017.2 hPa Calm   9.7 km/h 73% 0 mm
22:39 20.8 °C 15.8 °C 1017.2 hPa SW 6.4 km/h 9.7 km/h 73% 0 mm
22:44 20.8 °C 15.8 °C 1017.2 hPa SW 1.6 km/h 9.7 km/h 73% 0 mm
22:49 20.9 °C 15.9 °C 1017.2 hPa SW 3.2 km/h 9.7 km/h 73% 0 mm
22:54 20.8 °C 15.8 °C 1017.2 hPa SW 3.2 km/h 8 km/h 73% 0 mm
22:59 20.8 °C 15.8 °C 1017.2 hPa SW 1.6 km/h 6.4 km/h 73% 0 mm
23:04 20.7 °C 15.9 °C 1017.2 hPa SW 1.6 km/h 8 km/h 74% 0 mm
23:09 20.7 °C 15.9 °C 1017.2 hPa WSW 1.6 km/h 8 km/h 74% 0 mm
23:14 20.7 °C 16.1 °C 1017.2 hPa Calm   8 km/h 75% 0 mm
23:19 20.5 °C 15.9 °C 1017.2 hPa SSW 3.2 km/h 6.4 km/h 75% 0 mm
23:29 20.3 °C 16.2 °C 1017.2 hPa SW 1.6 km/h 6.4 km/h 77% 0 mm
23:34 20.4 °C 16.2 °C 1017.2 hPa SSW 3.2 km/h 8 km/h 77% 0 mm
23:39 20.3 °C 16.2 °C 1017.2 hPa Calm   4.8 km/h 77% 0 mm
23:44 20.3 °C 16.3 °C 1017.2 hPa SSW 4.8 km/h 6.4 km/h 78% 0 mm
23:49 20.1 °C 16.2 °C 1017.2 hPa Calm   6.4 km/h 78% 0 mm
23:54 19.9 °C 16 °C 1017.2 hPa SSW 1.6 km/h 6.4 km/h 78% 0 mm
23:59 19.8 °C 16.1 °C 1017.2 hPa South 1.6 km/h 4.8 km/h 79% 0 mm
Buffalo, New York, USA
Compliments of Weather Underground - 2.5 mb